Time;durP1;ratioP1;P1;durP2;ratioP2;P2;SDS_P1;SDS_P2;PMS_P1;PMS_P2;Temp;Humidity;BMP_temperature;BMP_pressure;BME280_temperature;BME280_humidity;BME280_pressure;Samples;Min_cycle;Max_cycle;Signal;HPM_P1;HPM_P2
2024/01/11 00:00:59;;;;;;;38.70;13.75;;;;;;;;;;5016129;28;20033;-79
2024/01/11 00:03:24;;;;;;;41.97;14.70;;;;;;;;;;5015426;28;20034;-78
2024/01/11 00:05:49;;;;;;;34.30;14.40;;;;;;;;;;5014927;28;20076;-78
2024/01/11 00:08:14;;;;;;;24.63;12.38;;;;;;;;;;5013866;28;20034;-78
2024/01/11 00:10:40;;;;;;;32.13;12.65;;;;;;;;;;5014190;28;20101;-79
2024/01/11 00:13:05;;;;;;;35.83;15.82;;;;;;;;;;5013668;28;20037;-79
2024/01/11 00:15:30;;;;;;;33.75;15.75;;;;;;;;;;5014332;28;20061;-79
2024/01/11 00:17:55;;;;;;;34.00;14.10;;;;;;;;;;5014710;28;20029;-79
2024/01/11 00:20:21;;;;;;;36.85;13.07;;;;;;;;;;5014293;28;20022;-78
2024/01/11 00:22:46;;;;;;;31.95;12.32;;;;;;;;;;5014333;28;20432;-78
2024/01/11 00:25:11;;;;;;;34.13;13.50;;;;;;;;;;5014395;28;20396;-78
2024/01/11 00:27:36;;;;;;;33.13;12.65;;;;;;;;;;5014088;28;20034;-79
2024/01/11 00:30:02;;;;;;;28.88;12.10;;;;;;;;;;5014004;28;20076;-79
2024/01/11 00:32:27;;;;;;;32.88;12.98;;;;;;;;;;5014637;28;20037;-78
2024/01/11 00:34:52;;;;;;;34.05;13.60;;;;;;;;;;5015347;28;20026;-78
2024/01/11 00:37:18;;;;;;;26.77;12.30;;;;;;;;;;4997431;28;20033;-79
2024/01/11 00:39:43;;;;;;;24.85;11.43;;;;;;;;;;5014910;28;20123;-79
2024/01/11 00:42:09;;;;;;;33.67;11.95;;;;;;;;;;5015195;28;20125;-79
2024/01/11 00:44:34;;;;;;;29.95;12.18;;;;;;;;;;5014759;28;20053;-79
2024/01/11 00:46:59;;;;;;;35.90;13.45;;;;;;;;;;5015152;28;20390;-79
2024/01/11 00:49:24;;;;;;;27.25;11.10;;;;;;;;;;5015273;28;20030;-79
2024/01/11 00:51:50;;;;;;;28.58;12.10;;;;;;;;;;5015704;28;20058;-79
2024/01/11 00:54:15;;;;;;;23.60;10.75;;;;;;;;;;5014872;28;20033;-79
2024/01/11 00:56:40;;;;;;;28.60;11.25;;;;;;;;;;5015044;28;20034;-78
2024/01/11 00:59:05;;;;;;;29.50;11.48;;;;;;;;;;5013789;28;20083;-78
2024/01/11 01:01:30;;;;;;;31.13;12.38;;;;;;;;;;5015343;28;20034;-79
2024/01/11 01:03:56;;;;;;;26.92;11.02;;;;;;;;;;5015209;28;20101;-79
2024/01/11 01:06:21;;;;;;;25.77;11.07;;;;;;;;;;5000686;28;20026;-79
2024/01/11 01:08:47;;;;;;;26.95;12.13;;;;;;;;;;5017965;28;20551;-79
2024/01/11 01:11:12;;;;;;;33.72;11.98;;;;;;;;;;5017909;28;20505;-79
2024/01/11 01:13:37;;;;;;;27.73;11.70;;;;;;;;;;5000476;28;20053;-79
2024/01/11 01:16:03;;;;;;;25.15;10.95;;;;;;;;;;5017272;28;20049;-79
2024/01/11 01:18:28;;;;;;;29.17;11.50;;;;;;;;;;5016626;28;20033;-79
2024/01/11 01:20:54;;;;;;;25.70;9.10;;;;;;;;;;5016915;28;20029;-80
2024/01/11 01:23:19;;;;;;;25.50;10.27;;;;;;;;;;5017531;28;20018;-78
2024/01/11 01:25:45;;;;;;;22.80;9.55;;;;;;;;;;5017436;28;20025;-79
2024/01/11 01:28:10;;;;;;;24.10;9.18;;;;;;;;;;5017463;28;20449;-79
2024/01/11 01:30:35;;;;;;;21.05;9.43;;;;;;;;;;5016852;28;20068;-79
2024/01/11 01:33:00;;;;;;;21.88;9.07;;;;;;;;;;5017241;28;20064;-79
2024/01/11 01:35:25;;;;;;;18.88;8.63;;;;;;;;;;5016914;28;20038;-79
2024/01/11 01:37:51;;;;;;;23.77;9.07;;;;;;;;;;5016935;28;20022;-79
2024/01/11 01:40:16;;;;;;;20.20;9.75;;;;;;;;;;5016825;28;20026;-79
2024/01/11 01:42:43;;;;;;;21.50;9.45;;;;;;;;;;5017692;28;20025;-79
2024/01/11 01:45:09;;;;;;;19.50;9.05;;;;;;;;;;5017757;28;20034;-79
2024/01/11 01:47:34;;;;;;;22.50;9.38;;;;;;;;;;4999402;28;20033;-79
2024/01/11 01:49:59;;;;;;;21.40;9.40;;;;;;;;;;5016553;28;20018;-79
2024/01/11 01:52:25;;;;;;;27.95;9.95;;;;;;;;;;5016957;28;20496;-77
2024/01/11 01:54:50;;;;;;;20.42;9.50;;;;;;;;;;5017527;28;20400;-78
2024/01/11 01:57:18;;;;;;;22.63;9.77;;;;;;;;;;5017608;28;20480;-78
2024/01/11 01:59:45;;;;;;;23.10;9.55;;;;;;;;;;5017536;28;20080;-79
2024/01/11 02:02:11;;;;;;;25.48;9.77;;;;;;;;;;5017200;28;20477;-79
2024/01/11 02:04:37;;;;;;;18.25;8.65;;;;;;;;;;4999594;28;20033;-78
2024/01/11 02:07:03;;;;;;;27.98;9.75;;;;;;;;;;4998994;28;20022;-79
2024/01/11 02:09:30;;;;;;;20.00;9.35;;;;;;;;;;5000160;28;20026;-78
2024/01/11 02:11:55;;;;;;;21.88;9.43;;;;;;;;;;4999723;28;20045;-78
2024/01/11 02:14:20;;;;;;;20.23;9.15;;;;;;;;;;5017841;28;20030;-78
2024/01/11 02:16:46;;;;;;;23.15;10.07;;;;;;;;;;4998287;28;20036;-78
2024/01/11 02:19:13;;;;;;;19.40;8.73;;;;;;;;;;4999511;28;20022;-78
2024/01/11 02:21:38;;;;;;;18.45;9.50;;;;;;;;;;4999653;28;20092;-78
2024/01/11 02:24:05;;;;;;;27.45;9.30;;;;;;;;;;5016904;28;20030;-78
2024/01/11 02:26:30;;;;;;;20.42;9.52;;;;;;;;;;5016017;28;20022;-79
2024/01/11 02:28:55;;;;;;;22.40;9.20;;;;;;;;;;5017187;28;20029;-79
2024/01/11 02:31:21;;;;;;;25.77;9.63;;;;;;;;;;5017322;28;20087;-79
2024/01/11 02:33:47;;;;;;;23.42;9.00;;;;;;;;;;5017214;28;20493;-79
2024/01/11 02:36:13;;;;;;;19.27;8.68;;;;;;;;;;5017368;28;20066;-79
2024/01/11 02:38:41;;;;;;;23.02;9.65;;;;;;;;;;5016966;28;20034;-79
2024/01/11 02:41:07;;;;;;;20.52;8.60;;;;;;;;;;5017143;28;20104;-78
2024/01/11 02:43:34;;;;;;;22.25;9.88;;;;;;;;;;5016641;28;20519;-79
2024/01/11 02:45:59;;;;;;;18.55;9.05;;;;;;;;;;4998225;28;20448;-79
2024/01/11 02:48:28;;;;;;;24.33;9.32;;;;;;;;;;5027066;28;20018;-78
2024/01/11 02:50:53;;;;;;;20.23;9.40;;;;;;;;;;5039001;28;20029;-77
2024/01/11 02:53:18;;;;;;;20.40;8.43;;;;;;;;;;5021774;28;20013;-79
2024/01/11 02:55:44;;;;;;;17.27;8.50;;;;;;;;;;5021382;28;20104;-79
2024/01/11 02:58:09;;;;;;;25.10;9.40;;;;;;;;;;4998514;28;20029;-79
2024/01/11 03:00:34;;;;;;;19.13;8.75;;;;;;;;;;4998574;28;20109;-79
2024/01/11 03:02:59;;;;;;;23.73;9.27;;;;;;;;;;5016458;28;20049;-79
2024/01/11 03:05:25;;;;;;;21.42;9.63;;;;;;;;;;4998432;28;20036;-79
2024/01/11 03:07:50;;;;;;;23.63;9.25;;;;;;;;;;5015948;28;20022;-79
2024/01/11 03:10:15;;;;;;;20.48;8.90;;;;;;;;;;4998242;28;20030;-79
2024/01/11 03:12:40;;;;;;;20.27;9.15;;;;;;;;;;4998344;28;20025;-79
2024/01/11 03:15:06;;;;;;;21.30;9.25;;;;;;;;;;5015958;28;20105;-79
2024/01/11 03:17:34;;;;;;;19.05;8.77;;;;;;;;;;5015704;28;20524;-79
2024/01/11 03:19:59;;;;;;;24.27;8.80;;;;;;;;;;4998964;28;20026;-80
2024/01/11 03:22:25;;;;;;;22.45;9.25;;;;;;;;;;5016442;28;20026;-79
2024/01/11 03:24:50;;;;;;;18.65;8.18;;;;;;;;;;4998618;28;20036;-80
2024/01/11 03:27:15;;;;;;;22.45;8.65;;;;;;;;;;5015947;28;20400;-79
2024/01/11 03:29:41;;;;;;;20.55;8.20;;;;;;;;;;5014587;28;20072;-80
2024/01/11 03:32:06;;;;;;;22.38;9.38;;;;;;;;;;5014795;28;20026;-79
2024/01/11 03:34:31;;;;;;;18.75;8.43;;;;;;;;;;4998101;28;20049;-78
2024/01/11 03:36:57;;;;;;;17.50;8.73;;;;;;;;;;4997825;28;20129;-78
2024/01/11 03:39:22;;;;;;;16.58;8.50;;;;;;;;;;5015231;28;20089;-78
2024/01/11 03:41:47;;;;;;;20.60;8.80;;;;;;;;;;5015517;28;20099;-79
2024/01/11 03:44:13;;;;;;;18.38;8.65;;;;;;;;;;4998486;28;20047;-79
2024/01/11 03:46:38;;;;;;;14.38;7.63;;;;;;;;;;4996748;28;20089;-78
2024/01/11 03:49:03;;;;;;;22.65;7.47;;;;;;;;;;5014347;28;20026;-79
2024/01/11 03:51:29;;;;;;;21.42;7.95;;;;;;;;;;5014967;28;20026;-79
2024/01/11 03:53:54;;;;;;;20.40;5.75;;;;;;;;;;5015413;28;20045;-79
2024/01/11 03:56:19;;;;;;;19.67;7.97;;;;;;;;;;4998607;28;20030;-79
2024/01/11 03:58:44;;;;;;;24.95;8.45;;;;;;;;;;4997820;28;20025;-79
2024/01/11 04:01:10;;;;;;;16.60;7.25;;;;;;;;;;5015500;28;20084;-79
2024/01/11 04:03:36;;;;;;;23.90;8.32;;;;;;;;;;5014229;28;20029;-79
2024/01/11 04:06:01;;;;;;;21.02;7.57;;;;;;;;;;5014271;28;20053;-78
2024/01/11 04:08:26;;;;;;;16.13;7.07;;;;;;;;;;5014137;28;20021;-78
2024/01/11 04:10:52;;;;;;;15.00;7.75;;;;;;;;;;4996719;28;20095;-79
2024/01/11 04:13:17;;;;;;;17.73;7.60;;;;;;;;;;5014510;28;20021;-78
2024/01/11 04:15:42;;;;;;;24.65;8.77;;;;;;;;;;5015583;28;20029;-79
2024/01/11 04:18:07;;;;;;;19.02;7.93;;;;;;;;;;5015046;28;20029;-78
2024/01/11 04:20:32;;;;;;;17.35;7.85;;;;;;;;;;5014511;28;20481;-78
2024/01/11 04:22:58;;;;;;;18.25;8.10;;;;;;;;;;4996567;28;20033;-78
2024/01/11 04:25:23;;;;;;;19.73;8.05;;;;;;;;;;5014434;28;20030;-79
2024/01/11 04:27:48;;;;;;;15.23;7.38;;;;;;;;;;5014794;28;20025;-80
2024/01/11 04:30:13;;;;;;;20.92;8.27;;;;;;;;;;5014317;28;20037;-79
2024/01/11 04:32:39;;;;;;;16.33;7.70;;;;;;;;;;5014227;28;20045;-80
2024/01/11 04:35:04;;;;;;;17.15;7.35;;;;;;;;;;4997385;28;20484;-79
2024/01/11 04:37:30;;;;;;;18.40;8.13;;;;;;;;;;5014592;28;20066;-80
2024/01/11 04:39:55;;;;;;;21.50;9.10;;;;;;;;;;5015469;28;20030;-80
2024/01/11 04:42:20;;;;;;;18.85;7.13;;;;;;;;;;5018730;28;20026;-80
2024/01/11 04:44:45;;;;;;;19.02;7.47;;;;;;;;;;5001106;28;20026;-80
2024/01/11 04:47:11;;;;;;;24.55;7.53;;;;;;;;;;5018774;28;20014;-79
2024/01/11 04:49:36;;;;;;;15.88;6.95;;;;;;;;;;5000736;28;20080;-79
2024/01/11 04:52:01;;;;;;;19.58;7.65;;;;;;;;;;5018434;28;20496;-78
2024/01/11 04:54:26;;;;;;;23.67;7.32;;;;;;;;;;5018503;28;20108;-79
2024/01/11 04:56:51;;;;;;;17.25;7.82;;;;;;;;;;5018188;28;20033;-79
2024/01/11 04:59:17;;;;;;;18.73;7.82;;;;;;;;;;5000739;28;20026;-77
2024/01/11 05:01:42;;;;;;;19.50;8.60;;;;;;;;;;5017868;28;20067;-80
2024/01/11 05:04:09;;;;;;;17.05;7.97;;;;;;;;;;5001041;28;20021;-78
2024/01/11 05:06:34;;;;;;;24.13;8.73;;;;;;;;;;5018717;28;20024;-79
2024/01/11 05:08:59;;;;;;;18.90;8.93;;;;;;;;;;5019223;28;20034;-79
2024/01/11 05:11:24;;;;;;;19.02;7.95;;;;;;;;;;5018444;28;20608;-78
2024/01/11 05:13:51;;;;;;;16.95;6.72;;;;;;;;;;5018022;28;20025;-79
2024/01/11 05:16:25;;;;;;;15.15;7.00;;;;;;;;;;5001400;28;20030;-79
2024/01/11 05:18:51;;;;;;;20.52;8.20;;;;;;;;;;5000833;28;20033;-77
2024/01/11 05:21:17;;;;;;;19.83;8.30;;;;;;;;;;5018891;28;20026;-80
2024/01/11 05:23:42;;;;;;;29.98;9.70;;;;;;;;;;5001387;28;20106;-82
2024/01/11 05:26:09;;;;;;;20.88;8.82;;;;;;;;;;5019053;28;20064;-79
2024/01/11 05:28:34;;;;;;;18.20;7.40;;;;;;;;;;5018183;28;20058;-79
2024/01/11 05:30:59;;;;;;;23.17;7.47;;;;;;;;;;5018560;28;20390;-79
2024/01/11 05:33:24;;;;;;;16.25;6.85;;;;;;;;;;5002081;28;20021;-80
2024/01/11 05:35:50;;;;;;;23.95;7.93;;;;;;;;;;5002998;28;20090;-80
2024/01/11 05:38:15;;;;;;;16.55;7.53;;;;;;;;;;5019957;28;20029;-79
2024/01/11 05:40:41;;;;;;;17.90;7.82;;;;;;;;;;5019633;28;20447;-80
2024/01/11 05:43:06;;;;;;;19.38;7.53;;;;;;;;;;5000347;28;20045;-79
2024/01/11 05:45:33;;;;;;;20.38;7.45;;;;;;;;;;5018245;28;20033;-79
2024/01/11 05:47:59;;;;;;;16.50;7.15;;;;;;;;;;4999705;28;20018;-81
2024/01/11 05:50:24;;;;;;;16.80;7.07;;;;;;;;;;5018064;28;20025;-79
2024/01/11 05:52:50;;;;;;;17.50;8.05;;;;;;;;;;5016898;28;20089;-80
2024/01/11 05:55:16;;;;;;;16.77;7.53;;;;;;;;;;5017749;28;20032;-80
2024/01/11 05:57:41;;;;;;;14.70;6.68;;;;;;;;;;5017899;28;20022;-78
2024/01/11 06:00:07;;;;;;;18.83;7.88;;;;;;;;;;4999857;28;20053;-78
2024/01/11 06:02:32;;;;;;;13.88;6.88;;;;;;;;;;4999775;28;20033;-79
2024/01/11 06:04:57;;;;;;;21.90;8.10;;;;;;;;;;5017663;28;20480;-79
2024/01/11 06:07:23;;;;;;;14.50;7.18;;;;;;;;;;5017574;28;20083;-80
2024/01/11 06:09:48;;;;;;;15.93;6.82;;;;;;;;;;4999770;28;20025;-80
2024/01/11 06:12:14;;;;;;;17.45;7.72;;;;;;;;;;5000249;28;20024;-79
2024/01/11 06:14:39;;;;;;;15.95;7.57;;;;;;;;;;5017496;28;20093;-79
2024/01/11 06:17:04;;;;;;;19.23;7.75;;;;;;;;;;5017282;28;20026;-79
2024/01/11 06:19:29;;;;;;;16.80;7.50;;;;;;;;;;4999884;28;20041;-79
2024/01/11 06:21:55;;;;;;;19.10;8.05;;;;;;;;;;4999218;28;20030;-79
2024/01/11 06:24:20;;;;;;;18.00;8.18;;;;;;;;;;5000365;28;20029;-79
2024/01/11 06:26:45;;;;;;;21.80;8.63;;;;;;;;;;5016928;28;20026;-78
2024/01/11 06:29:10;;;;;;;15.35;6.85;;;;;;;;;;5016316;28;20022;-79
2024/01/11 06:31:35;;;;;;;17.15;7.75;;;;;;;;;;5037162;28;20041;-79
2024/01/11 06:34:01;;;;;;;20.45;8.65;;;;;;;;;;5039405;28;20021;-78
2024/01/11 06:36:26;;;;;;;19.27;7.93;;;;;;;;;;5031902;28;20448;-79
2024/01/11 06:38:51;;;;;;;17.33;7.57;;;;;;;;;;5016406;28;20029;-79
2024/01/11 06:41:16;;;;;;;15.88;7.00;;;;;;;;;;5016559;28;20029;-79
2024/01/11 06:43:41;;;;;;;19.45;7.60;;;;;;;;;;5016097;28;20085;-78
2024/01/11 06:46:21;;;;;;;18.83;8.65;;;;;;;;;;5015742;28;20049;-78
2024/01/11 06:48:46;;;;;;;16.27;7.63;;;;;;;;;;4998781;28;20030;-79
2024/01/11 06:51:14;;;;;;;17.00;7.65;;;;;;;;;;4999210;28;20021;-79
2024/01/11 06:53:40;;;;;;;16.10;7.50;;;;;;;;;;4998482;28;20017;-80
2024/01/11 06:56:17;;;;;;;15.80;7.63;;;;;;;;;;4996714;28;20083;-79
2024/01/11 06:58:43;;;;;;;18.40;7.43;;;;;;;;;;5014714;28;20033;-78
2024/01/11 07:01:08;;;;;;;19.55;7.25;;;;;;;;;;5014788;28;20029;-79
2024/01/11 07:03:34;;;;;;;18.08;7.15;;;;;;;;;;5015096;28;20385;-78
2024/01/11 07:05:59;;;;;;;16.02;7.30;;;;;;;;;;4998286;28;20030;-78
2024/01/11 07:08:24;;;;;;;19.48;8.65;;;;;;;;;;5015641;28;20038;-78
2024/01/11 07:10:49;;;;;;;15.65;7.60;;;;;;;;;;5016157;28;20029;-80
2024/01/11 07:13:16;;;;;;;17.50;8.25;;;;;;;;;;5015603;28;20190;-79
2024/01/11 07:15:42;;;;;;;15.07;7.53;;;;;;;;;;5015992;28;20026;-79
2024/01/11 07:18:07;;;;;;;13.75;5.60;;;;;;;;;;5016147;28;20033;-79
2024/01/11 07:20:33;;;;;;;15.35;6.13;;;;;;;;;;5016252;28;20026;-79
2024/01/11 07:22:59;;;;;;;13.73;6.03;;;;;;;;;;4998831;28;20021;-79
2024/01/11 07:25:24;;;;;;;16.13;6.90;;;;;;;;;;5015195;28;20025;-78
2024/01/11 07:27:49;;;;;;;16.45;6.97;;;;;;;;;;5014745;28;20022;-79
2024/01/11 07:30:14;;;;;;;14.98;6.38;;;;;;;;;;4997281;28;20033;-78
2024/01/11 07:32:40;;;;;;;17.65;7.40;;;;;;;;;;5014200;28;20029;-78
2024/01/11 07:35:06;;;;;;;15.50;8.07;;;;;;;;;;5014443;28;20026;-77
2024/01/11 07:37:32;;;;;;;16.10;6.82;;;;;;;;;;5013831;28;20481;-79
2024/01/11 07:39:57;;;;;;;19.48;7.68;;;;;;;;;;5014260;28;20036;-78
2024/01/11 07:42:22;;;;;;;17.60;7.95;;;;;;;;;;5014885;28;20116;-77
2024/01/11 07:44:47;;;;;;;16.77;8.05;;;;;;;;;;5015082;28;20034;-79
2024/01/11 07:47:12;;;;;;;22.42;8.75;;;;;;;;;;5015326;28;20021;-78
2024/01/11 07:49:38;;;;;;;22.88;9.20;;;;;;;;;;5014995;28;20092;-78
2024/01/11 07:52:04;;;;;;;20.40;7.55;;;;;;;;;;4996705;28;20030;-78
2024/01/11 07:54:31;;;;;;;20.70;7.70;;;;;;;;;;5015457;28;20026;-79
2024/01/11 07:56:56;;;;;;;18.92;7.75;;;;;;;;;;4997409;28;20030;-78
2024/01/11 07:59:21;;;;;;;19.05;7.97;;;;;;;;;;4998020;28;20033;-79
2024/01/11 08:01:48;;;;;;;19.73;7.65;;;;;;;;;;5015416;28;20030;-78
2024/01/11 08:04:13;;;;;;;19.23;8.20;;;;;;;;;;5016009;28;20044;-79
2024/01/11 08:06:38;;;;;;;16.35;7.90;;;;;;;;;;5016118;28;20018;-78
2024/01/11 08:09:04;;;;;;;13.90;6.50;;;;;;;;;;5015636;28;20061;-80
2024/01/11 08:11:31;;;;;;;20.67;7.03;;;;;;;;;;4996772;28;20021;-78
2024/01/11 08:13:56;;;;;;;15.57;7.50;;;;;;;;;;5012853;28;20049;-79
2024/01/11 08:16:21;;;;;;;17.27;7.85;;;;;;;;;;5014214;28;20469;-79
2024/01/11 08:18:48;;;;;;;18.90;7.72;;;;;;;;;;5014623;28;20021;-78
2024/01/11 08:21:14;;;;;;;19.25;8.18;;;;;;;;;;5014846;28;20026;-78
2024/01/11 08:23:44;;;;;;;20.63;9.45;;;;;;;;;;5014067;28;20032;-77
2024/01/11 08:26:10;;;;;;;17.48;7.85;;;;;;;;;;5013726;28;20021;-78
2024/01/11 08:28:35;;;;;;;20.10;9.02;;;;;;;;;;4998408;28;20396;-79
2024/01/11 08:31:01;;;;;;;44.38;15.63;;;;;;;;;;5014571;28;20109;-78
2024/01/11 08:33:26;;;;;;;42.80;14.50;;;;;;;;;;5014403;28;20093;-79
2024/01/11 08:35:51;;;;;;;27.25;10.05;;;;;;;;;;5014932;28;20029;-77
2024/01/11 08:38:16;;;;;;;29.08;9.50;;;;;;;;;;5013847;28;20037;-75
2024/01/11 08:40:42;;;;;;;22.42;8.45;;;;;;;;;;5016269;28;20045;-78
2024/01/11 08:43:07;;;;;;;16.88;8.30;;;;;;;;;;5013638;28;20180;-77
2024/01/11 08:45:32;;;;;;;21.85;8.07;;;;;;;;;;5012884;28;20023;-77
2024/01/11 08:47:57;;;;;;;16.63;8.10;;;;;;;;;;5014207;28;20036;-76
2024/01/11 08:50:22;;;;;;;32.90;9.05;;;;;;;;;;5000200;28;20038;-78
2024/01/11 08:52:48;;;;;;;18.13;8.20;;;;;;;;;;5016130;28;20026;-77
2024/01/11 08:55:13;;;;;;;19.60;8.13;;;;;;;;;;5018207;28;20061;-77
2024/01/11 08:57:39;;;;;;;14.57;7.07;;;;;;;;;;5016898;28;20022;-77
2024/01/11 09:00:06;;;;;;;15.45;7.45;;;;;;;;;;5017590;28;20045;-78
2024/01/11 09:02:31;;;;;;;19.38;7.90;;;;;;;;;;5017137;28;20030;-77
2024/01/11 09:04:56;;;;;;;19.10;7.20;;;;;;;;;;5015442;28;20025;-76
2024/01/11 09:07:22;;;;;;;24.38;8.18;;;;;;;;;;5015995;28;20018;-77
2024/01/11 09:09:47;;;;;;;20.83;8.02;;;;;;;;;;5014549;28;20056;-78
2024/01/11 09:12:12;;;;;;;18.13;8.02;;;;;;;;;;5016132;28;20033;-78
2024/01/11 09:14:39;;;;;;;19.08;8.63;;;;;;;;;;4998425;28;20029;-78
2024/01/11 09:17:06;;;;;;;18.88;8.25;;;;;;;;;;5015897;28;20076;-77
2024/01/11 09:19:33;;;;;;;22.85;9.10;;;;;;;;;;5015934;28;20049;-78
2024/01/11 09:21:58;;;;;;;22.30;9.40;;;;;;;;;;5015694;28;20028;-77
2024/01/11 09:24:24;;;;;;;24.73;9.02;;;;;;;;;;5015548;28;20046;-77
2024/01/11 09:26:49;;;;;;;23.42;9.05;;;;;;;;;;5017448;28;20048;-78
2024/01/11 09:29:15;;;;;;;20.98;9.02;;;;;;;;;;5019156;28;20369;-78
2024/01/11 09:31:42;;;;;;;21.73;9.68;;;;;;;;;;5019493;28;20033;-77
2024/01/11 09:34:07;;;;;;;26.90;11.32;;;;;;;;;;5019313;28;20450;-77
2024/01/11 09:36:33;;;;;;;19.40;7.70;;;;;;;;;;5019437;28;20112;-77
2024/01/11 09:38:58;;;;;;;24.60;11.07;;;;;;;;;;5001572;28;20022;-77
2024/01/11 09:41:24;;;;;;;28.63;12.35;;;;;;;;;;5019358;28;20022;-77
2024/01/11 09:43:53;;;;;;;28.33;12.35;;;;;;;;;;5018865;28;20057;-77
2024/01/11 09:46:20;;;;;;;34.85;12.27;;;;;;;;;;5019095;28;20017;-77
2024/01/11 09:48:48;;;;;;;33.22;13.52;;;;;;;;;;5018481;28;20512;-76
2024/01/11 09:51:13;;;;;;;29.40;13.30;;;;;;;;;;5019070;28;20025;-77
2024/01/11 09:53:40;;;;;;;31.63;13.65;;;;;;;;;;5000089;28;20032;-77
2024/01/11 09:56:09;;;;;;;28.48;12.32;;;;;;;;;;5016999;28;20029;-78
2024/01/11 09:58:38;;;;;;;33.50;12.93;;;;;;;;;;4999641;28;20048;-77
2024/01/11 10:01:08;;;;;;;25.58;11.88;;;;;;;;;;5016381;28;20060;-76
2024/01/11 10:03:34;;;;;;;35.38;14.15;;;;;;;;;;5017312;28;20075;-77
2024/01/11 10:06:01;;;;;;;34.50;15.35;;;;;;;;;;5017771;28;20022;-77
2024/01/11 10:08:27;;;;;;;35.85;15.13;;;;;;;;;;5017889;28;20025;-77
2024/01/11 10:10:52;;;;;;;37.03;14.40;;;;;;;;;;5017565;28;20041;-77
2024/01/11 10:13:18;;;;;;;32.08;13.50;;;;;;;;;;5019388;28;20382;-77
2024/01/11 10:15:43;;;;;;;31.88;14.32;;;;;;;;;;5004994;28;20028;-77
2024/01/11 10:18:09;;;;;;;47.97;16.25;;;;;;;;;;5023227;28;20105;-77
2024/01/11 10:20:34;;;;;;;33.90;14.85;;;;;;;;;;5019177;28;20470;-78
2024/01/11 10:22:59;;;;;;;35.75;15.52;;;;;;;;;;5016481;28;20033;-78
2024/01/11 10:25:24;;;;;;;37.83;15.63;;;;;;;;;;5016917;28;20022;-77
2024/01/11 10:27:50;;;;;;;39.88;16.30;;;;;;;;;;5016982;28;20030;-78
2024/01/11 10:30:16;;;;;;;38.38;16.05;;;;;;;;;;5016530;28;20108;-78
2024/01/11 10:32:46;;;;;;;37.35;15.98;;;;;;;;;;5017197;28;20029;-78
2024/01/11 10:35:12;;;;;;;44.75;17.15;;;;;;;;;;5018240;28;20030;-78
2024/01/11 10:37:40;;;;;;;34.97;14.48;;;;;;;;;;5016970;28;20040;-78
2024/01/11 10:40:11;;;;;;;42.60;15.82;;;;;;;;;;5017513;28;20036;-78
2024/01/11 10:42:41;;;;;;;41.38;15.95;;;;;;;;;;4999699;28;20053;-78
2024/01/11 10:45:13;;;;;;;37.88;16.63;;;;;;;;;;4999958;28;20038;-78
2024/01/11 10:47:45;;;;;;;41.95;16.63;;;;;;;;;;4999122;28;20117;-78
2024/01/11 10:50:12;;;;;;;44.40;16.95;;;;;;;;;;5016726;28;20116;-78
2024/01/11 10:52:46;;;;;;;36.65;16.38;;;;;;;;;;5000046;28;20026;-78
2024/01/11 10:55:12;;;;;;;44.00;16.65;;;;;;;;;;5016624;28;20037;-77
2024/01/11 10:57:37;;;;;;;39.22;16.73;;;;;;;;;;5015819;28;20030;-77
2024/01/11 11:00:03;;;;;;;49.80;19.02;;;;;;;;;;5015489;28;20116;-76
2024/01/11 11:02:29;;;;;;;42.67;18.15;;;;;;;;;;5015132;28;20105;-78
2024/01/11 11:04:56;;;;;;;41.85;16.98;;;;;;;;;;5014164;28;20171;-77
2024/01/11 11:07:22;;;;;;;54.53;18.98;;;;;;;;;;5017999;28;20121;-77
2024/01/11 11:09:49;;;;;;;53.28;19.80;;;;;;;;;;5014690;28;20065;-77
2024/01/11 11:12:16;;;;;;;49.83;19.65;;;;;;;;;;5016848;28;20443;-77
2024/01/11 11:14:43;;;;;;;52.30;20.60;;;;;;;;;;5015898;28;20030;-78
2024/01/11 11:17:09;;;;;;;46.05;19.80;;;;;;;;;;5015522;28;20108;-77
2024/01/11 11:19:34;;;;;;;38.72;17.15;;;;;;;;;;5016144;28;20476;-77
2024/01/11 11:22:04;;;;;;;39.80;15.63;;;;;;;;;;4997603;28;20374;-76
2024/01/11 11:24:29;;;;;;;50.55;20.00;;;;;;;;;;4997748;28;20068;-77
2024/01/11 11:26:57;;;;;;;44.75;17.83;;;;;;;;;;5014662;28;20042;-75
2024/01/11 11:29:22;;;;;;;45.05;17.25;;;;;;;;;;4998165;28;20054;-78
2024/01/11 11:31:53;;;;;;;51.85;19.73;;;;;;;;;;5015566;28;20026;-78
2024/01/11 11:34:19;;;;;;;42.58;17.98;;;;;;;;;;5017307;28;20083;-77
2024/01/11 11:36:46;;;;;;;50.70;19.80;;;;;;;;;;5000295;28;20022;-78
2024/01/11 11:39:11;;;;;;;44.13;18.08;;;;;;;;;;5015138;28;20037;-77
2024/01/11 11:41:38;;;;;;;43.65;19.55;;;;;;;;;;5014457;28;20021;-77
2024/01/11 11:44:05;;;;;;;45.22;19.63;;;;;;;;;;4996796;28;20052;-77
2024/01/11 11:46:31;;;;;;;48.25;19.33;;;;;;;;;;5017477;28;20018;-76
2024/01/11 11:48:57;;;;;;;56.95;18.95;;;;;;;;;;4997473;28;20040;-77
2024/01/11 11:51:23;;;;;;;47.20;20.23;;;;;;;;;;5012872;28;20400;-77
2024/01/11 11:53:50;;;;;;;41.05;16.40;;;;;;;;;;5014495;28;20030;-77
2024/01/11 11:56:18;;;;;;;25.02;12.63;;;;;;;;;;5014365;28;20040;-77
2024/01/11 11:58:44;;;;;;;37.10;14.98;;;;;;;;;;5015642;28;20022;-77
2024/01/11 12:01:10;;;;;;;42.38;16.23;;;;;;;;;;4998710;28;20032;-77
2024/01/11 12:03:38;;;;;;;44.13;18.63;;;;;;;;;;5016186;28;20033;-78
2024/01/11 12:06:05;;;;;;;38.33;15.70;;;;;;;;;;5017239;28;20030;-78
2024/01/11 12:08:32;;;;;;;37.45;15.75;;;;;;;;;;4999671;28;20172;-78
2024/01/11 12:10:57;;;;;;;37.00;16.52;;;;;;;;;;5017054;28;20404;-78
2024/01/11 12:13:24;;;;;;;39.92;14.75;;;;;;;;;;5017051;28;20045;-78
2024/01/11 12:15:49;;;;;;;38.33;14.90;;;;;;;;;;5017528;28;20026;-78
2024/01/11 12:18:14;;;;;;;28.42;12.18;;;;;;;;;;5012913;28;20076;-77
2024/01/11 12:20:40;;;;;;;41.13;17.02;;;;;;;;;;5015256;28;20025;-77
2024/01/11 12:23:05;;;;;;;34.90;14.27;;;;;;;;;;5019825;28;20018;-78
2024/01/11 12:25:31;;;;;;;35.80;13.88;;;;;;;;;;5017723;28;20042;-77
2024/01/11 12:27:57;;;;;;;29.23;12.48;;;;;;;;;;5014939;28;20025;-77
2024/01/11 12:30:23;;;;;;;25.75;11.10;;;;;;;;;;5014527;28;20091;-76
2024/01/11 12:32:49;;;;;;;36.50;14.55;;;;;;;;;;5014557;28;20070;-76
2024/01/11 12:35:14;;;;;;;40.90;16.60;;;;;;;;;;5015682;28;20036;-76
2024/01/11 12:37:39;;;;;;;44.15;16.90;;;;;;;;;;5015188;28;20105;-76
2024/01/11 12:40:06;;;;;;;31.10;13.18;;;;;;;;;;5016703;28;20026;-77
2024/01/11 12:42:35;;;;;;;41.60;16.50;;;;;;;;;;5015799;28;20018;-77
2024/01/11 12:45:00;;;;;;;37.42;16.15;;;;;;;;;;5017963;28;20541;-77
2024/01/11 12:47:25;;;;;;;26.05;11.15;;;;;;;;;;5014703;28;20033;-76
2024/01/11 12:49:51;;;;;;;38.92;17.13;;;;;;;;;;5016190;28;20046;-78
2024/01/11 12:52:20;;;;;;;44.08;17.40;;;;;;;;;;5014907;28;20030;-77
2024/01/11 12:54:46;;;;;;;39.80;16.85;;;;;;;;;;5016521;28;20018;-78
2024/01/11 12:57:19;;;;;;;40.10;16.02;;;;;;;;;;5015324;28;20033;-77
2024/01/11 12:59:45;;;;;;;47.67;17.30;;;;;;;;;;5014998;28;20481;-77
2024/01/11 13:02:13;;;;;;;48.95;18.30;;;;;;;;;;5017063;28;20038;-76
2024/01/11 13:04:39;;;;;;;39.05;16.45;;;;;;;;;;5018869;28;20128;-78
2024/01/11 13:07:04;;;;;;;39.72;16.13;;;;;;;;;;5018917;28;20033;-78
2024/01/11 13:09:29;;;;;;;34.42;12.82;;;;;;;;;;5019269;28;20440;-76
2024/01/11 13:11:54;;;;;;;33.25;12.55;;;;;;;;;;5018462;28;20028;-77
2024/01/11 13:14:20;;;;;;;36.30;15.30;;;;;;;;;;5019092;28;20108;-78
2024/01/11 13:16:46;;;;;;;29.33;13.02;;;;;;;;;;5017772;28;20072;-77
2024/01/11 13:19:11;;;;;;;26.55;12.32;;;;;;;;;;5018308;28;20033;-77
2024/01/11 13:21:37;;;;;;;32.83;13.52;;;;;;;;;;5018219;28;20083;-77
2024/01/11 13:24:03;;;;;;;37.78;15.75;;;;;;;;;;5017714;28;20378;-77
2024/01/11 13:26:28;;;;;;;27.88;11.88;;;;;;;;;;5017169;28;20029;-77
2024/01/11 13:28:53;;;;;;;42.42;16.42;;;;;;;;;;5000252;28;20026;-77
2024/01/11 13:31:20;;;;;;;35.53;15.15;;;;;;;;;;5017535;28;20080;-77
2024/01/11 13:33:46;;;;;;;31.45;12.35;;;;;;;;;;5020025;28;20075;-78
2024/01/11 13:36:11;;;;;;;28.70;11.70;;;;;;;;;;5002645;28;20021;-78
2024/01/11 13:38:36;;;;;;;34.22;13.38;;;;;;;;;;5019143;28;20026;-77
2024/01/11 13:41:01;;;;;;;34.15;13.23;;;;;;;;;;5016764;28;20101;-76
2024/01/11 13:43:26;;;;;;;37.47;15.15;;;;;;;;;;5017487;28;20033;-76
2024/01/11 13:45:52;;;;;;;37.85;14.77;;;;;;;;;;5018473;28;20076;-77
2024/01/11 13:48:17;;;;;;;41.08;16.23;;;;;;;;;;5017020;28;20025;-77
2024/01/11 13:50:42;;;;;;;34.97;14.85;;;;;;;;;;5017792;28;20378;-77
2024/01/11 13:53:08;;;;;;;20.50;9.63;;;;;;;;;;5018928;28;20083;-79
2024/01/11 13:55:37;;;;;;;19.02;8.02;;;;;;;;;;5000887;28;20061;-78
2024/01/11 13:58:03;;;;;;;35.90;14.38;;;;;;;;;;5022234;28;20026;-79
2024/01/11 14:00:29;;;;;;;35.60;13.68;;;;;;;;;;5033337;28;20030;-81
2024/01/11 14:02:54;;;;;;;49.72;16.92;;;;;;;;;;5029813;28;20026;-78
2024/01/11 14:05:19;;;;;;;40.33;15.93;;;;;;;;;;5003371;28;20484;-78
2024/01/11 14:07:45;;;;;;;32.90;14.02;;;;;;;;;;5020623;28;20028;-77
2024/01/11 14:10:12;;;;;;;24.38;11.30;;;;;;;;;;5020609;28;20503;-77
2024/01/11 14:12:37;;;;;;;21.90;10.38;;;;;;;;;;5021283;28;20401;-78
2024/01/11 14:15:04;;;;;;;35.97;14.07;;;;;;;;;;5020983;28;20024;-78